Time;durP1;ratioP1;P1;durP2;ratioP2;P2;SDS_P1;SDS_P2;PMS_P1;PMS_P2;Temp;Humidity;BMP_temperature;BMP_pressure;BME280_temperature;BME280_humidity;BME280_pressure;Samples;Min_cycle;Max_cycle;Signal;HPM_P1;HPM_P2
2024/04/22 04:02:21;;;;;;;0.90;0.80;;;0.30;97.30;;;;;;5558293;22;21091;-86
2024/04/22 04:08:11;;;;;;;1.00;0.90;;;0.20;97.30;;;;;;5327221;26;20589;-86
2024/04/22 04:10:43;;;;;;;2.93;2.20;;;0.20;97.30;;;;;;5328328;26;20465;-86
2024/04/22 04:13:12;;;;;;;1.30;1.20;;;0.20;97.30;;;;;;5343721;26;21042;-85
2024/04/22 04:15:41;;;;;;;6.23;1.60;;;0.30;97.30;;;;;;5338701;26;20467;-86
2024/04/22 04:18:22;;;;;;;1.77;1.67;;;0.30;97.30;;;;;;5341887;26;20880;-85
2024/04/22 04:20:49;;;;;;;1.00;0.90;;;0.30;97.30;;;;;;5330999;26;20560;-87
2024/04/22 04:23:41;;;;;;;0.90;0.80;;;0.40;97.30;;;;;;5339652;26;20994;-87
2024/04/22 04:26:10;;;;;;;1.10;1.00;;;0.50;97.30;;;;;;5308248;26;20461;-85
2024/04/22 04:28:41;;;;;;;1.20;1.10;;;0.60;97.30;;;;;;5341428;26;20792;-87
2024/04/22 04:31:12;;;;;;;1.00;0.90;;;0.70;97.30;;;;;;5343259;26;21141;-85
2024/04/22 04:33:41;;;;;;;1.20;1.10;;;0.70;97.30;;;;;;5346396;26;20544;-86
2024/04/22 04:36:12;;;;;;;1.10;1.00;;;0.80;97.30;;;;;;5332824;26;20454;-85
2024/04/22 04:38:51;;;;;;;1.30;1.20;;;0.80;97.30;;;;;;5344084;26;20472;-86
2024/04/22 04:41:23;;;;;;;1.00;0.90;;;0.80;97.30;;;;;;5338166;26;20523;-86
2024/04/22 04:44:22;;;;;;;1.00;0.90;;;0.90;97.30;;;;;;5336452;26;20477;-86
2024/04/22 04:47:02;;;;;;;1.00;0.90;;;0.90;97.30;;;;;;5345295;26;20540;-84
2024/04/22 04:49:49;;;;;;;1.00;0.90;;;0.90;97.30;;;;;;5345071;26;20553;-86
2024/04/22 04:52:23;;;;;;;1.00;0.90;;;0.90;97.30;;;;;;5349951;26;20470;-82
2024/04/22 04:54:52;;;;;;;1.00;1.00;;;1.00;97.30;;;;;;5331761;26;20830;-86
2024/04/22 04:57:33;;;;;;;1.10;1.07;;;1.00;97.30;;;;;;5343391;26;20467;-86
2024/04/22 05:00:22;;;;;;;1.10;1.00;;;1.00;97.30;;;;;;5324965;26;20471;-84
2024/04/22 05:02:51;;;;;;;0.90;0.80;;;1.00;97.30;;;;;;5328563;26;20489;-86
2024/04/22 05:05:23;;;;;;;1.77;1.67;;;1.00;97.30;;;;;;5343831;26;20461;-86
2024/04/22 05:07:52;;;;;;;1.67;1.57;;;1.00;97.30;;;;;;5329564;26;20510;-86
2024/04/22 05:10:22;;;;;;;0.90;0.80;;;1.00;97.30;;;;;;5343770;26;20517;-86
2024/04/22 05:13:43;;;;;;;0.90;0.80;;;1.10;97.30;;;;;;5332028;26;20823;-86
2024/04/22 05:15:53;;;;;;;1.97;1.00;;;1.10;97.30;;;;;;5316415;26;21100;-85
2024/04/22 05:18:22;;;;;;;1.10;1.00;;;1.20;97.30;;;;;;5333711;26;20823;-84
2024/04/22 05:21:14;;;;;;;0.90;0.80;;;1.20;97.30;;;;;;5336140;26;20539;-86
2024/04/22 05:24:21;;;;;;;1.07;0.97;;;1.20;97.30;;;;;;5327440;26;20533;-87
2024/04/22 05:26:59;;;;;;;1.50;1.40;;;1.30;97.30;;;;;;5344148;26;20796;-83
2024/04/22 05:29:42;;;;;;;1.07;0.97;;;1.30;97.30;;;;;;5334433;26;20580;-87
2024/04/22 05:32:15;;;;;;;0.90;0.80;;;1.40;97.30;;;;;;5345285;26;20477;-85
2024/04/22 05:37:43;;;;;;;1.00;0.90;;;1.50;97.30;;;;;;5343788;26;20517;-86
2024/04/22 05:40:11;;;;;;;1.87;1.17;;;1.50;97.30;;;;;;5343243;26;20470;-87
2024/04/22 05:42:43;;;;;;;0.90;0.80;;;1.50;97.30;;;;;;5342381;26;20527;-86
2024/04/22 05:45:43;;;;;;;1.00;0.90;;;1.50;97.30;;;;;;5343279;26;20465;-86
2024/04/22 05:48:22;;;;;;;0.90;0.80;;;1.50;97.30;;;;;;5333688;26;20469;-86
2024/04/22 05:51:01;;;;;;;1.20;1.10;;;1.50;97.30;;;;;;5345160;26;20477;-86
2024/04/22 05:53:30;;;;;;;1.20;1.10;;;1.60;97.30;;;;;;5340548;26;20865;-87
2024/04/22 05:56:11;;;;;;;1.17;1.07;;;1.60;97.30;;;;;;5341388;26;20655;-86
2024/04/22 05:58:41;;;;;;;1.90;1.20;;;1.70;97.30;;;;;;5316193;26;20850;-85
2024/04/22 06:01:12;;;;;;;0.90;0.80;;;1.90;97.30;;;;;;5343246;26;20535;-86
2024/04/22 06:03:41;;;;;;;1.37;1.27;;;2.00;97.30;;;;;;5344441;26;20515;-86
2024/04/22 06:06:13;;;;;;;1.53;1.50;;;2.10;97.30;;;;;;5344423;26;20465;-86
2024/04/22 06:08:59;;;;;;;0.90;0.80;;;2.20;97.30;;;;;;5345826;26;21050;-86
2024/04/22 06:11:33;;;;;;;0.90;0.80;;;2.20;97.30;;;;;;5344575;26;20504;-86
2024/04/22 06:14:02;;;;;;;1.37;1.30;;;2.30;97.30;;;;;;5344780;26;20588;-86
2024/04/22 06:16:54;;;;;;;1.43;1.37;;;2.40;97.30;;;;;;5328530;26;20470;-86
2024/04/22 06:19:31;;;;;;;1.10;1.00;;;2.40;97.30;;;;;;5342897;26;20606;-86
2024/04/22 06:22:03;;;;;;;1.10;1.00;;;2.50;97.30;;;;;;5333126;26;20503;-87
2024/04/22 06:24:32;;;;;;;1.60;1.50;;;2.50;97.30;;;;;;5341614;26;20514;-86
2024/04/22 06:27:13;;;;;;;1.10;1.00;;;2.50;97.30;;;;;;5341633;26;21025;-87
2024/04/22 06:30:13;;;;;;;0.80;0.70;;;2.40;97.30;;;;;;5342828;26;20477;-87
2024/04/22 06:32:42;;;;;;;1.10;1.00;;;2.30;97.30;;;;;;5337270;26;20516;-86
2024/04/22 06:35:40;;;;;;;2.03;1.43;;;2.30;97.30;;;;;;5343334;26;21007;-87
2024/04/22 06:38:12;;;;;;;1.97;1.87;;;2.30;97.30;;;;;;5328973;26;20481;-86
2024/04/22 06:40:53;;;;;;;1.10;1.00;;;2.30;97.30;;;;;;5341843;26;20588;-86
2024/04/22 06:43:22;;;;;;;1.30;1.13;;;2.30;97.30;;;;;;5342313;26;20482;-86
2024/04/22 06:45:51;;;;;;;1.00;0.90;;;2.30;97.30;;;;;;5327983;26;20544;-87
2024/04/22 06:48:32;;;;;;;1.27;1.17;;;2.30;97.30;;;;;;5339343;26;20538;-86
2024/04/22 06:51:03;;;;;;;0.90;0.80;;;2.50;97.30;;;;;;5343976;26;20483;-86
2024/04/22 06:54:03;;;;;;;1.20;1.10;;;2.70;97.30;;;;;;5328135;26;20475;-86
2024/04/22 06:56:32;;;;;;;0.90;0.80;;;2.90;97.30;;;;;;5299752;26;20471;-86
2024/04/22 06:59:12;;;;;;;3.17;2.00;;;3.10;97.30;;;;;;5328477;26;20533;-87
2024/04/22 07:01:42;;;;;;;1.20;1.10;;;3.30;97.30;;;;;;5341383;26;20536;-85
2024/04/22 07:04:43;;;;;;;1.50;1.40;;;3.40;97.20;;;;;;5342052;26;20469;-86
2024/04/22 07:07:12;;;;;;;0.90;0.80;;;3.50;97.30;;;;;;5340160;26;20521;-87
2024/04/22 07:09:41;;;;;;;0.90;0.80;;;3.70;97.30;;;;;;5327530;26;20526;-86
2024/04/22 07:12:20;;;;;;;2.60;1.30;;;3.70;97.20;;;;;;5318058;26;20519;-87
2024/04/22 07:15:23;;;;;;;0.90;0.80;;;3.80;97.30;;;;;;5321058;26;20506;-86
2024/04/22 07:17:53;;;;;;;0.90;0.80;;;3.90;96.90;;;;;;5334024;26;21074;-86
2024/04/22 07:20:23;;;;;;;1.20;1.10;;;4.00;96.90;;;;;;5341762;26;20537;-86
2024/04/22 07:22:52;;;;;;;1.40;1.30;;;4.10;95.90;;;;;;5342126;26;20583;-86
2024/04/22 07:28:31;;;;;;;1.10;1.00;;;4.50;96.80;;;;;;5331279;26;20485;-87
2024/04/22 07:31:02;;;;;;;1.03;0.93;;;4.60;94.60;;;;;;5322337;26;20490;-86
2024/04/22 07:34:02;;;;;;;1.37;1.27;;;4.50;93.50;;;;;;5337236;26;20478;-86
2024/04/22 07:36:51;;;;;;;2.23;1.10;;;4.60;93.70;;;;;;5308293;26;20857;-86
2024/04/22 07:39:33;;;;;;;1.10;1.00;;;4.60;93.20;;;;;;5337788;26;20481;-86
2024/04/22 07:42:02;;;;;;;0.90;0.80;;;4.70;93.30;;;;;;5318715;26;20477;-86
2024/04/22 07:44:33;;;;;;;0.90;0.80;;;4.70;92.30;;;;;;5328121;26;20571;-85
2024/04/22 07:47:01;;;;;;;1.17;1.07;;;4.80;92.30;;;;;;5328611;26;20544;-86
2024/04/22 07:49:33;;;;;;;0.90;0.80;;;4.90;93.20;;;;;;5336402;26;20490;-86
2024/04/22 07:52:02;;;;;;;1.10;1.00;;;5.10;93.50;;;;;;5325822;26;20483;-87
2024/04/22 07:55:00;;;;;;;1.20;1.10;;;5.20;93.80;;;;;;5336297;26;20465;-87
2024/04/22 07:57:33;;;;;;;5.70;1.63;;;5.30;91.70;;;;;;5307001;26;20518;-87
2024/04/22 08:00:12;;;;;;;0.90;0.80;;;5.40;93.00;;;;;;5327728;26;20477;-87
2024/04/22 08:02:43;;;;;;;1.67;1.20;;;5.50;91.30;;;;;;5342511;26;21082;-87
2024/04/22 08:05:12;;;;;;;1.23;1.13;;;5.60;90.90;;;;;;5332353;26;20463;-86
2024/04/22 08:07:42;;;;;;;0.80;0.70;;;5.60;88.90;;;;;;5323765;26;20537;-87
2024/04/22 08:10:10;;;;;;;1.17;1.07;;;5.50;88.50;;;;;;5339574;26;20882;-86
2024/04/22 08:12:42;;;;;;;1.50;1.40;;;5.50;89.40;;;;;;5314666;26;21004;-87
2024/04/22 08:15:11;;;;;;;1.03;0.93;;;5.60;89.90;;;;;;5330067;26;20471;-87
2024/04/22 08:17:39;;;;;;;0.90;0.80;;;5.80;90.10;;;;;;5322945;26;20605;-86
2024/04/22 08:20:12;;;;;;;0.80;0.70;;;6.00;89.50;;;;;;5320002;26;20469;-86
2024/04/22 08:22:37;;;;;;;0.90;0.80;;;6.30;89.40;;;;;;5327331;26;20490;-86
2024/04/22 08:25:04;;;;;;;0.90;0.90;;;6.20;88.80;;;;;;5341220;26;20515;-85
2024/04/22 08:27:30;;;;;;;1.10;1.00;;;6.10;88.80;;;;;;5339227;26;20593;-85
2024/04/22 08:29:58;;;;;;;1.23;1.10;;;6.20;89.50;;;;;;5332956;26;20514;-86
2024/04/22 08:32:24;;;;;;;1.10;1.00;;;6.40;88.10;;;;;;5334490;26;20834;-87
2024/04/22 08:34:54;;;;;;;1.10;1.00;;;6.40;88.70;;;;;;5329430;26;20469;-87
2024/04/22 08:37:20;;;;;;;1.10;1.00;;;6.50;87.90;;;;;;5318352;26;20478;-87
2024/04/22 08:39:46;;;;;;;0.90;0.80;;;6.50;88.00;;;;;;5338925;26;20572;-86
2024/04/22 08:42:13;;;;;;;1.47;1.37;;;6.40;87.10;;;;;;5331009;26;21008;-86
2024/04/22 08:44:41;;;;;;;1.00;0.90;;;6.20;87.00;;;;;;5325259;26;20792;-86
2024/04/22 08:47:07;;;;;;;1.27;1.17;;;6.20;87.40;;;;;;5309791;26;21028;-86
2024/04/22 08:49:33;;;;;;;1.10;1.00;;;6.20;86.40;;;;;;5336657;26;20481;-84
2024/04/22 08:51:59;;;;;;;1.50;1.40;;;6.10;85.60;;;;;;5321066;26;20518;-87
2024/04/22 08:54:27;;;;;;;1.23;1.13;;;6.00;85.60;;;;;;5345513;26;20469;-86
2024/04/22 08:56:55;;;;;;;0.90;0.80;;;5.90;85.50;;;;;;5330480;26;20274;-86
2024/04/22 08:59:20;;;;;;;1.67;1.20;;;6.00;85.40;;;;;;5332528;26;20918;-87
2024/04/22 09:01:46;;;;;;;1.17;1.07;;;6.20;86.00;;;;;;5332173;26;20461;-86
2024/04/22 09:04:11;;;;;;;0.80;0.70;;;6.50;86.10;;;;;;5335881;26;20731;-86
2024/04/22 09:06:37;;;;;;;1.90;1.67;;;6.60;84.90;;;;;;5337682;26;20247;-87
2024/04/22 09:09:08;;;;;;;1.00;0.90;;;6.70;83.70;;;;;;5323299;26;20259;-86
2024/04/22 09:11:35;;;;;;;1.33;1.07;;;6.80;84.50;;;;;;5323954;26;20357;-85
2024/04/22 09:14:02;;;;;;;1.00;0.90;;;7.10;84.80;;;;;;5330515;26;21128;-86
2024/04/22 09:16:27;;;;;;;1.00;0.90;;;7.30;84.40;;;;;;5341547;26;20461;-87
2024/04/22 09:18:53;;;;;;;1.00;0.90;;;7.60;83.80;;;;;;5323579;26;20993;-87
2024/04/22 09:21:21;;;;;;;0.90;0.80;;;7.80;82.20;;;;;;5324763;26;20247;-87
2024/04/22 09:23:47;;;;;;;1.30;1.20;;;8.00;83.10;;;;;;5342809;26;20474;-87
2024/04/22 09:26:12;;;;;;;1.00;0.90;;;8.30;83.10;;;;;;5324311;26;20552;-87
2024/04/22 09:28:38;;;;;;;0.80;0.70;;;8.40;81.60;;;;;;5327702;26;20458;-87
2024/04/22 09:31:04;;;;;;;0.80;0.70;;;8.50;82.30;;;;;;5331517;26;20784;-87
2024/04/22 09:33:35;;;;;;;1.47;1.37;;;8.40;81.20;;;;;;5340197;26;20265;-87
2024/04/22 09:36:05;;;;;;;1.40;1.30;;;8.30;80.30;;;;;;5338627;26;20537;-87
2024/04/22 09:38:33;;;;;;;0.90;0.80;;;7.80;80.10;;;;;;5321402;26;20513;-88
2024/04/22 09:41:03;;;;;;;0.87;0.87;;;7.50;82.60;;;;;;5333768;26;20469;-87
2024/04/22 09:43:32;;;;;;;1.17;1.07;;;7.40;83.10;;;;;;5341851;26;20514;-87
2024/04/22 09:46:01;;;;;;;1.00;0.90;;;7.50;81.80;;;;;;5324342;26;20588;-86
2024/04/22 09:48:29;;;;;;;0.90;0.80;;;7.60;82.00;;;;;;5335090;26;20525;-86
2024/04/22 09:50:57;;;;;;;2.50;0.97;;;8.00;82.40;;;;;;5332960;26;20603;-85
2024/04/22 09:53:24;;;;;;;6.10;2.40;;;8.00;82.10;;;;;;5325917;26;20565;-84
2024/04/22 09:55:53;;;;;;;2.20;2.00;;;8.00;81.70;;;;;;5337084;26;21110;-86
2024/04/22 09:58:20;;;;;;;0.90;0.80;;;8.00;81.90;;;;;;5324055;26;20479;-86
2024/04/22 10:00:46;;;;;;;1.37;1.10;;;7.80;80.80;;;;;;5320639;26;20462;-86
2024/04/22 10:03:11;;;;;;;1.00;0.90;;;7.60;82.40;;;;;;5331716;26;20809;-86
2024/04/22 10:05:39;;;;;;;1.10;1.00;;;7.60;82.70;;;;;;5321359;26;20247;-84
2024/04/22 10:08:10;;;;;;;1.30;1.20;;;7.60;82.60;;;;;;5325060;26;20263;-86
2024/04/22 10:10:40;;;;;;;0.90;0.80;;;7.50;81.50;;;;;;5329671;26;20471;-87
2024/04/22 10:13:12;;;;;;;1.90;1.17;;;7.50;82.10;;;;;;5322201;26;20485;-87
2024/04/22 10:15:37;;;;;;;18.53;1.43;;;7.50;83.00;;;;;;5331326;26;21107;-86
2024/04/22 10:18:12;;;;;;;0.90;0.80;;;7.50;83.00;;;;;;5324147;26;20490;-86
2024/04/22 10:20:40;;;;;;;0.90;0.80;;;7.70;82.90;;;;;;5330595;26;20239;-86
2024/04/22 10:23:11;;;;;;;1.03;1.00;;;8.00;83.40;;;;;;5332661;26;20553;-87
2024/04/22 10:25:37;;;;;;;1.37;1.10;;;8.00;83.30;;;;;;5342406;26;20536;-87
2024/04/22 10:28:02;;;;;;;1.00;0.90;;;8.00;83.00;;;;;;5316785;26;21050;-87
2024/04/22 10:30:36;;;;;;;0.90;0.80;;;8.00;82.30;;;;;;5329211;26;20749;-88
2024/04/22 10:33:02;;;;;;;1.20;1.10;;;7.90;81.30;;;;;;5340763;26;20713;-87
2024/04/22 10:35:29;;;;;;;1.00;0.90;;;7.80;81.50;;;;;;5326056;26;20473;-87
2024/04/22 10:37:55;;;;;;;1.77;1.67;;;7.90;81.10;;;;;;5318947;26;20869;-87
2024/04/22 10:40:20;;;;;;;1.10;1.00;;;8.00;81.20;;;;;;5328137;26;21060;-85
2024/04/22 10:42:47;;;;;;;1.90;1.33;;;8.10;81.70;;;;;;5322690;26;20525;-87
2024/04/22 10:45:13;;;;;;;0.90;0.80;;;8.20;81.80;;;;;;5335766;26;20239;-87
2024/04/22 10:47:39;;;;;;;1.00;0.93;;;8.20;79.80;;;;;;5327973;26;20513;-85
2024/04/22 10:50:13;;;;;;;1.43;1.33;;;8.20;79.80;;;;;;5333482;26;21057;-87
2024/04/22 10:52:39;;;;;;;0.90;0.80;;;7.90;80.10;;;;;;5328686;26;20277;-86
2024/04/22 10:55:05;;;;;;;1.03;0.93;;;7.60;80.30;;;;;;5334650;26;20470;-87
2024/04/22 10:57:31;;;;;;;1.20;1.10;;;7.30;81.70;;;;;;5333906;26;20648;-86
2024/04/22 10:59:57;;;;;;;1.10;1.00;;;7.20;81.40;;;;;;5335268;26;20473;-86
2024/04/22 11:02:22;;;;;;;1.53;1.43;;;7.10;83.10;;;;;;5335072;26;20290;-85
2024/04/22 11:04:49;;;;;;;0.90;0.80;;;7.20;84.40;;;;;;5345034;26;21117;-86
2024/04/22 11:07:16;;;;;;;3.97;1.40;;;7.30;83.00;;;;;;5339974;26;20239;-87
2024/04/22 11:09:41;;;;;;;5.50;1.43;;;7.30;81.70;;;;;;5345738;26;20470;-82
2024/04/22 11:12:08;;;;;;;1.37;1.27;;;7.40;81.00;;;;;;5347166;26;20469;-85
2024/04/22 11:14:36;;;;;;;1.33;1.23;;;7.50;82.40;;;;;;5346262;26;20239;-86
2024/04/22 11:17:02;;;;;;;1.10;1.00;;;7.70;82.00;;;;;;5358186;21;20503;-86
2024/04/22 11:19:33;;;;;;;1.53;1.43;;;7.80;81.00;;;;;;5337417;26;20564;-83
2024/04/22 11:22:22;;;;;;;1.67;1.57;;;7.90;80.40;;;;;;5331580;26;20232;-84
2024/04/22 11:24:54;;;;;;;1.07;0.97;;;7.90;81.50;;;;;;5318276;26;20511;-83
2024/04/22 11:27:22;;;;;;;1.87;1.77;;;8.00;81.00;;;;;;5327332;26;20462;-83
2024/04/22 11:30:47;;;;;;;;;;;;;;;;;;;;;
2024/04/22 11:33:23;;;;;;;0.80;0.70;;;8.10;79.40;;;;;;5329042;26;20870;-82
2024/04/22 11:35:53;;;;;;;1.03;0.93;;;8.10;80.50;;;;;;5325486;26;21055;-84
2024/04/22 11:38:23;;;;;;;0.90;0.80;;;8.00;78.30;;;;;;5338899;26;21258;-83
2024/04/22 11:40:53;;;;;;;0.80;0.70;;;7.90;78.40;;;;;;5327361;26;20532;-83
2024/04/22 11:43:24;;;;;;;1.10;1.00;;;8.00;79.70;;;;;;5317548;26;20470;-83
2024/04/22 11:45:53;;;;;;;1.10;1.00;;;8.10;80.00;;;;;;5333719;26;20481;-86
2024/04/22 11:48:18;;;;;;;0.90;0.80;;;8.20;80.90;;;;;;5339679;21;20490;-64
2024/04/22 11:50:44;;;;;;;0.90;0.80;;;8.30;78.60;;;;;;5343920;26;21124;-65
2024/04/22 11:53:10;;;;;;;1.17;1.10;;;8.20;79.10;;;;;;5272797;27;20267;-65
2024/04/22 11:55:35;;;;;;;6.73;2.30;;;8.20;80.90;;;;;;5294385;27;20736;-66
2024/04/22 11:58:01;;;;;;;1.00;0.90;;;8.00;79.80;;;;;;5270380;27;20520;-66
2024/04/22 12:00:27;;;;;;;1.47;1.03;;;8.10;80.90;;;;;;5304468;26;20228;-65
2024/04/22 12:02:52;;;;;;;1.10;1.00;;;8.00;79.60;;;;;;5298746;27;20244;-65
2024/04/22 12:05:18;;;;;;;1.00;0.90;;;8.10;81.00;;;;;;5274068;27;20763;-66
2024/04/22 12:07:43;;;;;;;1.93;1.20;;;8.00;80.90;;;;;;5295410;27;20536;-65
2024/04/22 12:10:09;;;;;;;0.80;0.70;;;7.80;81.10;;;;;;5304035;26;20236;-65
2024/04/22 12:12:35;;;;;;;0.87;0.77;;;7.70;81.10;;;;;;5303671;27;20279;-65
2024/04/22 12:15:01;;;;;;;1.20;1.10;;;7.60;82.20;;;;;;5303552;27;20232;-68
2024/04/22 12:17:26;;;;;;;0.80;0.70;;;7.60;82.20;;;;;;5303515;27;20278;-65
2024/04/22 12:19:52;;;;;;;1.00;0.90;;;7.50;80.50;;;;;;5273436;27;20262;-65
2024/04/22 12:22:18;;;;;;;1.17;1.10;;;7.50;81.40;;;;;;5273584;27;20236;-65
2024/04/22 12:24:44;;;;;;;0.90;0.80;;;7.80;82.30;;;;;;5273901;27;20512;-65
2024/04/22 12:27:10;;;;;;;6.70;1.20;;;8.10;82.00;;;;;;5276646;27;20268;-65
2024/04/22 12:29:35;;;;;;;1.00;0.90;;;8.60;83.40;;;;;;5306977;27;20875;-65
2024/04/22 12:32:01;;;;;;;3.93;2.10;;;8.90;81.60;;;;;;5306188;26;20731;-65
2024/04/22 12:34:27;;;;;;;1.23;1.10;;;9.00;81.40;;;;;;5276788;27;20745;-65
2024/04/22 12:36:52;;;;;;;4.30;1.33;;;9.00;79.30;;;;;;5306792;27;21061;-66
2024/04/22 12:39:18;;;;;;;1.03;0.93;;;8.90;79.90;;;;;;5277330;27;20278;-65
2024/04/22 12:41:44;;;;;;;0.80;0.80;;;8.90;79.40;;;;;;5306667;26;20232;-65
2024/04/22 12:44:09;;;;;;;0.90;0.90;;;9.30;81.10;;;;;;5307002;27;20227;-66
2024/04/22 12:52:03;;;;;;;1.57;1.10;;;10.70;78.40;;;;;;5303929;26;20526;-64
2024/04/22 12:54:30;;;;;;;0.90;0.80;;;10.90;74.20;;;;;;5305987;27;20471;-65
2024/04/22 12:56:56;;;;;;;4.20;1.63;;;11.10;74.80;;;;;;5305735;27;20784;-65
2024/04/22 12:59:21;;;;;;;0.90;0.80;;;11.10;75.10;;;;;;5276623;27;21004;-65
2024/04/22 13:01:47;;;;;;;1.23;1.00;;;11.20;77.00;;;;;;5306357;26;20239;-65
2024/04/22 13:04:12;;;;;;;1.10;1.00;;;11.30;75.80;;;;;;5306565;27;20303;-66
2024/04/22 13:06:38;;;;;;;0.80;0.70;;;11.50;77.00;;;;;;5276088;27;20280;-65
2024/04/22 13:09:03;;;;;;;1.20;1.10;;;11.30;73.80;;;;;;5298067;27;20649;-66
2024/04/22 13:11:29;;;;;;;1.37;1.27;;;11.20;72.80;;;;;;5306376;26;20315;-63
2024/04/22 13:13:55;;;;;;;2.83;1.87;;;11.60;72.40;;;;;;5274607;27;20663;-65
2024/04/22 13:16:21;;;;;;;0.90;0.80;;;11.80;73.70;;;;;;5303667;27;20459;-65
2024/04/22 13:18:47;;;;;;;1.10;1.00;;;11.70;71.50;;;;;;5274139;27;21265;-65
2024/04/22 13:21:12;;;;;;;1.17;1.07;;;11.20;72.70;;;;;;5304535;26;20746;-67
2024/04/22 13:23:38;;;;;;;1.00;0.90;;;10.70;72.50;;;;;;5275761;27;20240;-66
2024/04/22 13:26:03;;;;;;;1.00;0.90;;;10.20;75.60;;;;;;5302916;27;20279;-65
2024/04/22 13:28:32;;;;;;;4.50;1.40;;;9.80;75.50;;;;;;5271630;27;20266;-65
2024/04/22 13:30:58;;;;;;;2.50;2.37;;;9.60;77.70;;;;;;5306094;26;20228;-66
2024/04/22 13:33:24;;;;;;;2.40;1.20;;;9.70;76.50;;;;;;5302703;27;20455;-66
2024/04/22 13:35:49;;;;;;;1.00;0.90;;;9.80;75.90;;;;;;5306708;27;21091;-68
2024/04/22 13:38:15;;;;;;;1.50;1.40;;;10.10;76.60;;;;;;5298718;27;20673;-65
2024/04/22 13:40:40;;;;;;;0.90;0.90;;;10.40;74.10;;;;;;5270204;27;20400;-66
2024/04/22 13:43:06;;;;;;;1.00;0.90;;;11.10;75.90;;;;;;5298756;27;20224;-65
2024/04/22 13:45:31;;;;;;;1.00;0.90;;;11.90;75.50;;;;;;5276270;27;20224;-64
2024/04/22 13:47:57;;;;;;;1.00;0.90;;;12.50;69.80;;;;;;5263656;26;1168127;-64
2024/04/22 13:50:22;;;;;;;1.90;1.33;;;12.50;68.50;;;;;;5277747;26;20231;-65
2024/04/22 13:52:49;;;;;;;1.47;1.00;;;12.30;68.70;;;;;;5299171;27;20278;-65
2024/04/22 13:55:14;;;;;;;1.00;0.90;;;11.90;70.10;;;;;;5300875;27;20293;-65
2024/04/22 13:57:40;;;;;;;3.00;1.27;;;11.40;70.30;;;;;;5304282;27;21017;-65
2024/04/22 14:00:06;;;;;;;0.90;0.80;;;11.00;73.50;;;;;;5298914;26;20228;-66
2024/04/22 14:02:32;;;;;;;1.63;1.53;;;10.90;74.70;;;;;;5275397;27;20247;-66
2024/04/22 14:04:58;;;;;;;1.13;1.03;;;10.60;73.90;;;;;;5275679;27;20511;-65
2024/04/22 14:07:23;;;;;;;1.40;1.30;;;10.10;75.50;;;;;;5305769;27;20283;-66
2024/04/22 14:09:48;;;;;;;1.10;1.00;;;9.80;75.70;;;;;;5305547;27;20266;-65
2024/04/22 14:12:15;;;;;;;1.37;1.27;;;9.40;75.90;;;;;;5256669;27;20831;-68
2024/04/22 14:14:41;;;;;;;1.00;0.90;;;9.20;76.10;;;;;;5273583;27;20567;-66
2024/04/22 14:17:06;;;;;;;1.10;1.00;;;9.00;77.20;;;;;;5305507;27;20519;-66
2024/04/22 14:19:32;;;;;;;1.00;0.90;;;8.80;77.20;;;;;;5305460;27;20235;-66
2024/04/22 14:21:57;;;;;;;2.70;2.20;;;8.70;76.80;;;;;;5275494;27;20247;-65
2024/04/22 14:24:23;;;;;;;2.00;1.53;;;8.60;77.30;;;;;;5275276;27;20228;-65
2024/04/22 14:26:49;;;;;;;1.10;1.00;;;8.50;78.50;;;;;;5302325;27;20720;-66
2024/04/22 14:29:14;;;;;;;1.60;1.50;;;8.40;77.00;;;;;;5273860;27;20740;-66
2024/04/22 14:31:40;;;;;;;1.43;1.33;;;8.30;79.30;;;;;;5304508;26;20239;-66
2024/04/22 14:34:06;;;;;;;2.20;1.00;;;8.30;78.20;;;;;;5273198;27;20283;-66
2024/04/22 14:36:31;;;;;;;1.13;1.10;;;8.30;77.20;;;;;;5305139;27;20239;-68
2024/04/22 14:38:57;;;;;;;1.10;1.00;;;8.40;77.70;;;;;;5278746;27;20539;-68
2024/04/22 14:41:22;;;;;;;1.10;1.00;;;8.80;79.50;;;;;;5307179;26;20653;-66
2024/04/22 14:43:48;;;;;;;1.67;1.57;;;9.00;78.10;;;;;;5307384;27;20243;-65
2024/04/22 14:46:16;;;;;;;1.13;1.13;;;9.00;77.80;;;;;;5307407;27;20679;-66
2024/04/22 14:48:41;;;;;;;1.33;1.23;;;8.90;78.30;;;;;;5307603;27;20278;-66
2024/04/22 14:51:07;;;;;;;1.20;1.10;;;8.80;77.50;;;;;;5275961;27;20483;-66
2024/04/22 14:53:32;;;;;;;1.20;1.10;;;8.60;78.40;;;;;;5276226;27;20758;-66
2024/04/22 14:56:02;;;;;;;1.27;1.17;;;8.60;77.90;;;;;;5298032;27;20578;-66
2024/04/22 14:58:27;;;;;;;1.10;1.00;;;8.40;78.80;;;;;;5274883;27;20276;-66
2024/04/22 15:00:53;;;;;;;1.10;1.00;;;8.40;79.80;;;;;;5303368;26;20475;-68
2024/04/22 15:03:18;;;;;;;0.90;0.80;;;8.70;80.20;;;;;;5268650;27;20236;-67
2024/04/22 15:05:44;;;;;;;1.00;0.90;;;9.20;80.20;;;;;;5305221;27;20232;-66
2024/04/22 15:08:09;;;;;;;0.80;0.70;;;10.20;79.50;;;;;;5304990;27;20711;-66
2024/04/22 15:10:49;;;;;;;0.90;0.90;;;10.80;75.50;;;;;;5305009;26;20779;-66
2024/04/22 15:13:15;;;;;;;1.20;1.10;;;11.30;73.10;;;;;;5304679;27;20510;-66
2024/04/22 15:15:41;;;;;;;1.00;0.90;;;11.50;72.40;;;;;;5305058;27;20888;-70
2024/04/22 15:18:06;;;;;;;2.57;1.30;;;11.70;73.00;;;;;;5304673;27;20513;-68
2024/04/22 15:20:32;;;;;;;1.30;1.20;;;12.20;72.30;;;;;;5304373;26;20358;-66
2024/04/22 15:22:57;;;;;;;1.40;1.20;;;12.50;70.50;;;;;;5274839;27;20244;-66
2024/04/22 15:25:23;;;;;;;1.57;1.50;;;12.30;68.60;;;;;;5274764;27;20292;-66
2024/04/22 15:27:49;;;;;;;1.07;0.97;;;11.80;69.10;;;;;;5305129;27;20262;-66
2024/04/22 15:30:14;;;;;;;1.10;1.00;;;11.20;70.70;;;;;;5304477;26;20236;-68
2024/04/22 15:32:41;;;;;;;1.00;0.90;;;11.40;71.80;;;;;;5298824;27;20244;-68
2024/04/22 15:35:06;;;;;;;1.10;1.00;;;12.30;70.80;;;;;;5304196;27;20282;-65
2024/04/22 15:37:32;;;;;;;1.00;0.90;;;12.90;69.90;;;;;;5274270;27;21488;-68
2024/04/22 15:39:57;;;;;;;1.10;1.00;;;13.20;69.00;;;;;;5304346;27;20587;-68
2024/04/22 15:42:23;;;;;;;0.90;0.80;;;13.70;69.40;;;;;;5298593;26;20348;-66
2024/04/22 15:44:48;;;;;;;1.17;1.00;;;13.80;68.10;;;;;;5299402;27;20235;-68
2024/04/22 15:47:15;;;;;;;0.90;0.80;;;13.30;69.10;;;;;;5301350;27;20248;-69
2024/04/22 15:49:41;;;;;;;1.80;1.43;;;12.40;68.40;;;;;;5265181;27;20689;-68
2024/04/22 15:52:06;;;;;;;1.30;1.03;;;11.60;70.40;;;;;;5303248;26;20467;-68
2024/04/22 15:54:32;;;;;;;1.53;1.47;;;11.10;72.20;;;;;;5276842;27;20236;-69
2024/04/22 15:56:57;;;;;;;0.90;0.80;;;10.60;73.60;;;;;;5273421;27;20291;-67
2024/04/22 15:59:23;;;;;;;1.33;1.33;;;10.30;72.80;;;;;;5273406;27;20244;-71
2024/04/22 16:01:48;;;;;;;2.00;0.90;;;10.00;74.10;;;;;;5310385;26;20641;-70
2024/04/22 16:04:14;;;;;;;0.90;0.80;;;9.70;75.70;;;;;;5310762;27;20662;-71
2024/04/22 16:06:39;;;;;;;1.33;0.90;;;9.40;76.60;;;;;;5311421;27;20279;-70
2024/04/22 16:09:05;;;;;;;1.40;1.30;;;9.10;77.50;;;;;;5280302;27;20243;-70
2024/04/22 16:11:30;;;;;;;0.90;0.90;;;8.70;78.90;;;;;;5306899;26;20559;-71
2024/04/22 16:13:56;;;;;;;1.83;1.17;;;8.50;79.60;;;;;;5311050;27;20278;-71
2024/04/22 16:16:21;;;;;;;1.00;0.90;;;8.30;80.00;;;;;;5281084;27;20236;-70
2024/04/22 16:18:47;;;;;;;1.63;1.53;;;8.10;80.40;;;;;;5311079;27;20284;-69
2024/04/22 16:21:13;;;;;;;0.90;0.90;;;8.00;80.70;;;;;;5308434;26;20232;-71
2024/04/22 16:23:38;;;;;;;1.00;0.90;;;7.80;82.40;;;;;;5309166;27;20649;-70
2024/04/22 16:26:04;;;;;;;0.80;0.80;;;7.80;83.60;;;;;;5311007;27;20809;-71
2024/04/22 16:28:33;;;;;;;1.73;1.63;;;7.60;84.50;;;;;;5311036;27;20235;-71
2024/04/22 16:30:58;;;;;;;2.00;1.47;;;7.50;85.00;;;;;;5310923;26;20231;-71
2024/04/22 16:33:26;;;;;;;1.13;1.03;;;7.40;85.40;;;;;;5310644;27;20585;-71
2024/04/22 16:35:52;;;;;;;2.50;1.80;;;7.30;85.90;;;;;;5280590;27;20232;-71
2024/04/22 16:38:17;;;;;;;1.67;1.57;;;7.30;86.30;;;;;;5277608;27;20817;-71
2024/04/22 16:40:43;;;;;;;1.00;0.90;;;7.30;86.30;;;;;;5279625;27;21057;-70
2024/04/22 16:43:09;;;;;;;2.10;1.10;;;7.30;86.30;;;;;;5310446;27;20574;-69
2024/04/22 16:45:34;;;;;;;1.83;1.73;;;7.20;88.60;;;;;;5310305;27;20295;-70
2024/04/22 16:48:00;;;;;;;1.53;1.43;;;7.00;91.10;;;;;;5310221;27;20244;-70
2024/04/22 16:50:25;;;;;;;1.00;0.90;;;6.90;92.00;;;;;;5306020;26;20243;-71
2024/04/22 16:52:51;;;;;;;2.80;2.60;;;6.90;92.50;;;;;;5310693;27;20282;-70
2024/04/22 16:55:16;;;;;;;1.00;0.90;;;6.80;92.90;;;;;;5310080;27;20239;-70
2024/04/22 16:57:42;;;;;;;2.07;1.87;;;6.80;93.80;;;;;;5280459;27;20244;-70
2024/04/22 17:00:07;;;;;;;1.30;1.20;;;6.80;94.10;;;;;;5279739;26;20275;-71
2024/04/22 17:02:34;;;;;;;1.10;1.00;;;6.70;94.20;;;;;;5307496;27;20240;-70
2024/04/22 17:04:59;;;;;;;1.23;1.13;;;6.70;94.90;;;;;;5306147;27;20463;-69
2024/04/22 17:07:25;;;;;;;1.30;1.20;;;6.70;95.20;;;;;;5309338;27;20232;-70
2024/04/22 17:09:50;;;;;;;1.70;1.20;;;6.70;95.50;;;;;;5279252;27;20704;-70
2024/04/22 17:12:16;;;;;;;3.20;2.00;;;6.60;95.50;;;;;;5305931;26;20778;-70
2024/04/22 17:14:41;;;;;;;1.33;1.23;;;6.60;95.40;;;;;;5305602;27;20841;-70
2024/04/22 17:17:07;;;;;;;1.80;1.70;;;6.60;95.40;;;;;;5305876;27;20266;-71
2024/04/22 17:19:33;;;;;;;3.63;1.60;;;6.50;95.40;;;;;;5271975;27;20266;-69
2024/04/22 17:21:59;;;;;;;0.90;0.80;;;6.50;95.40;;;;;;5305818;26;20224;-70
2024/04/22 17:24:24;;;;;;;1.17;1.07;;;6.50;94.30;;;;;;5305467;27;20566;-70